createdAt,value
2022-11-08T00:02:04.605Z,46.55
2022-11-08T00:05:26.012Z,46.70
2022-11-08T00:08:46.314Z,50.80
2022-11-08T00:15:11.928Z,51.90
2022-11-08T00:18:15.426Z,47.65
2022-11-08T00:21:18.919Z,47.85
2022-11-08T00:24:22.223Z,48.05
2022-11-08T00:27:27.649Z,48.58
2022-11-08T00:30:30.881Z,51.30
2022-11-08T00:33:34.133Z,50.42
2022-11-08T00:36:37.463Z,47.53
2022-11-08T00:39:41.149Z,51.05
2022-11-08T00:42:45.810Z,49.17
2022-11-08T00:45:48.987Z,44.75
2022-11-08T00:48:52.348Z,43.65
2022-11-08T00:51:55.725Z,45.70
2022-11-08T00:54:58.949Z,46.25
2022-11-08T00:58:03.690Z,46.33
2022-11-08T01:01:11.835Z,47.80
2022-11-08T01:04:17.260Z,44.22
2022-11-08T01:07:20.467Z,43.20
2022-11-08T01:10:23.705Z,48.03
2022-11-08T01:13:28.492Z,44.47
2022-11-08T01:16:33.289Z,46.03
2022-11-08T01:19:36.563Z,42.53
2022-11-08T01:22:39.790Z,44.10
2022-11-08T01:25:44.286Z,43.85
2022-11-08T01:28:48.967Z,47.78
2022-11-08T01:31:52.342Z,47.88
2022-11-08T01:34:55.716Z,46.85
2022-11-08T01:37:59.185Z,48.40
2022-11-08T01:41:02.634Z,45.90
2022-11-08T01:44:07.373Z,44.88
2022-11-08T01:47:10.645Z,46.47
2022-11-08T01:50:17.338Z,46.72
2022-11-08T01:53:21.114Z,50.80
2022-11-08T01:56:24.542Z,51.13
2022-11-08T01:59:30.279Z,51.10
2022-11-08T02:02:34.782Z,47.72
2022-11-08T02:05:38.296Z,54.50
2022-11-08T02:08:43.627Z,51.97
2022-11-08T02:11:48.745Z,45.17
2022-11-08T02:14:53.519Z,44.50
2022-11-08T02:17:56.953Z,44.20
2022-11-08T02:21:07.442Z,46.13
2022-11-08T02:24:14.107Z,50.53
2022-11-08T02:27:17.400Z,48.00
2022-11-08T02:30:20.694Z,52.55
2022-11-08T02:33:24.811Z,46.13
2022-11-08T02:36:28.250Z,44.03
2022-11-08T02:39:33.023Z,45.60
2022-11-08T02:42:38.455Z,46.30
2022-11-08T02:45:41.694Z,46.15
2022-11-08T02:48:44.890Z,51.45
2022-11-08T02:51:48.371Z,42.28
2022-11-08T02:54:53.188Z,43.50
2022-11-08T02:57:56.528Z,49.83
2022-11-08T03:00:59.725Z,46.08
2022-11-08T03:04:02.955Z,46.35
2022-11-08T03:07:06.135Z,46.00
2022-11-08T03:10:11.373Z,42.58
2022-11-08T03:13:14.650Z,40.10
2022-11-08T03:16:17.976Z,47.92
2022-11-08T03:19:21.112Z,40.33
2022-11-08T03:22:24.487Z,43.03
2022-11-08T03:25:29.261Z,45.50
2022-11-08T03:28:32.763Z,41.47
2022-11-08T03:31:35.987Z,46.42
2022-11-08T03:34:39.259Z,42.78
2022-11-08T03:37:42.524Z,47.92
2022-11-08T03:40:47.457Z,46.53
2022-11-08T03:43:50.701Z,39.65
2022-11-08T03:46:53.949Z,45.20
2022-11-08T03:49:57.218Z,42.25
2022-11-08T03:53:00.649Z,44.28
2022-11-08T03:56:05.515Z,43.40
2022-11-08T03:59:09.135Z,46.17
2022-11-08T04:02:12.784Z,44.78
2022-11-08T04:05:16.692Z,43.92
2022-11-08T04:08:20.145Z,44.47
2022-11-08T04:11:45.639Z,42.97
2022-11-08T04:15:14.151Z,41.50
2022-11-08T04:18:34.807Z,44.35
2022-11-08T04:21:45.047Z,42.00
2022-11-08T04:24:53.674Z,43.00
2022-11-08T04:27:59.840Z,47.25
2022-11-08T04:31:05.477Z,42.95
2022-11-08T04:34:08.771Z,42.97
2022-11-08T04:37:12.026Z,53.50
2022-11-08T04:40:15.404Z,44.53
2022-11-08T04:43:30.750Z,47.28
2022-11-08T04:46:38.287Z,48.40
2022-11-08T04:49:44.424Z,52.58
2022-11-08T04:52:53.430Z,51.58
2022-11-08T04:56:01.431Z,59.35
2022-11-08T04:59:11.880Z,52.60
2022-11-08T05:02:15.787Z,49.88
2022-11-08T05:05:20.357Z,61.97
2022-11-08T05:08:23.775Z,59.33
2022-11-08T05:11:29.614Z,57.88
2022-11-08T05:14:34.320Z,59.42
2022-11-08T05:17:37.701Z,65.70
2022-11-08T05:20:58.148Z,59.33
2022-11-08T05:24:03.207Z,63.22
2022-11-08T05:27:06.508Z,59.58
2022-11-08T05:30:11.977Z,68.53
2022-11-08T05:33:15.880Z,56.28
2022-11-08T05:36:19.176Z,59.88
2022-11-08T05:39:32.931Z,62.20
2022-11-08T05:42:36.168Z,60.88
2022-11-08T05:45:40.912Z,63.03
2022-11-08T05:48:44.845Z,62.25
2022-11-08T05:51:48.148Z,63.40
2022-11-08T05:54:51.422Z,65.47
2022-11-08T05:57:54.899Z,66.10
2022-11-08T06:01:03.984Z,66.60
2022-11-08T06:04:07.327Z,67.13
2022-11-08T06:07:10.656Z,68.63
2022-11-08T06:10:14.094Z,69.15
2022-11-08T06:13:17.369Z,68.75
2022-11-08T06:16:23.671Z,71.53
2022-11-08T06:19:26.933Z,70.45
2022-11-08T06:22:32.097Z,64.78
2022-11-08T06:25:35.380Z,70.20
2022-11-08T06:28:38.791Z,71.13
2022-11-08T06:31:43.614Z,74.40
2022-11-08T06:34:47.209Z,71.68
2022-11-08T06:37:50.416Z,83.45
2022-11-08T06:40:53.665Z,69.97
2022-11-08T06:43:56.889Z,71.28
2022-11-08T06:47:01.515Z,69.40
2022-11-08T06:50:05.530Z,65.00
2022-11-08T06:53:10.391Z,61.08
2022-11-08T06:56:13.680Z,58.92
2022-11-08T06:59:16.962Z,60.58
2022-11-08T07:02:21.666Z,58.90
2022-11-08T07:05:25.749Z,52.08
2022-11-08T07:08:29.384Z,55.63
2022-11-08T07:11:32.823Z,55.28
2022-11-08T07:14:36.055Z,52.70
2022-11-08T07:17:40.748Z,49.85
2022-11-08T07:20:44.492Z,48.97
2022-11-08T07:23:48.559Z,47.63
2022-11-08T07:26:52.250Z,46.83
2022-11-08T07:29:55.520Z,46.28
2022-11-08T07:33:00.305Z,45.17
2022-11-08T07:36:04.129Z,46.92
2022-11-08T07:39:07.334Z,41.58
2022-11-08T07:42:10.540Z,48.40
2022-11-08T07:45:14.056Z,46.95
2022-11-08T07:48:18.754Z,35.67
2022-11-08T07:51:22.071Z,39.33
2022-11-08T07:54:25.335Z,40.30
2022-11-08T07:57:28.576Z,37.55
2022-11-08T08:00:32.541Z,40.60
2022-11-08T08:03:37.571Z,45.47
2022-11-08T08:06:40.854Z,39.45
2022-11-08T08:09:44.055Z,36.97
2022-11-08T08:12:47.871Z,38.05
2022-11-08T08:15:51.097Z,37.20
2022-11-08T08:18:56.796Z,33.08
2022-11-08T08:22:00.186Z,36.95
2022-11-08T08:25:03.575Z,36.63
2022-11-08T08:28:07.180Z,30.15
2022-11-08T08:31:10.429Z,32.00
2022-11-08T08:34:15.834Z,31.95
2022-11-08T08:37:19.044Z,33.92
2022-11-08T08:40:22.282Z,29.40
2022-11-08T08:43:27.492Z,31.25
2022-11-08T08:46:30.695Z,29.08
2022-11-08T08:49:35.752Z,30.80
2022-11-08T08:52:40.615Z,33.40
2022-11-08T08:55:43.977Z,30.88
2022-11-08T09:02:11.605Z,29.35
2022-11-08T09:05:16.735Z,30.55
2022-11-08T09:08:19.987Z,31.45
2022-11-08T09:11:23.873Z,28.42
2022-11-08T09:14:27.244Z,29.98
2022-11-08T09:17:31.067Z,24.92
2022-11-08T09:20:35.737Z,25.95
2022-11-08T09:23:41.516Z,26.60
2022-11-08T09:26:44.786Z,27.23
2022-11-08T09:29:48.004Z,27.75
2022-11-08T09:33:00.996Z,26.38
2022-11-08T09:36:07.993Z,25.35
2022-11-08T09:39:11.210Z,25.50
2022-11-08T09:42:41.796Z,47.20
2022-11-08T09:45:47.004Z,22.85
2022-11-08T09:48:51.766Z,20.35
2022-11-08T09:51:56.495Z,20.17
2022-11-08T09:55:15.250Z,25.02
2022-11-08T09:58:27.672Z,23.35
2022-11-08T10:01:33.715Z,25.98
2022-11-08T10:04:38.435Z,20.27
2022-11-08T10:07:49.282Z,19.60
2022-11-08T10:11:16.658Z,20.23
2022-11-08T10:14:34.033Z,19.98
2022-11-08T10:18:09.698Z,23.40
2022-11-08T10:21:21.459Z,20.88
2022-11-08T10:24:35.826Z,16.23
2022-11-08T10:27:41.516Z,16.48
2022-11-08T10:30:48.448Z,13.98
2022-11-08T10:33:54.116Z,16.25
2022-11-08T10:37:04.853Z,12.93
2022-11-08T10:40:22.729Z,12.88
2022-11-08T10:43:33.914Z,13.98
2022-11-08T10:46:44.145Z,13.77
2022-11-08T10:52:58.331Z,14.55
2022-11-08T10:56:05.001Z,13.88
2022-11-08T10:59:30.981Z,14.15
2022-11-08T11:02:36.612Z,13.82
2022-11-08T11:05:43.561Z,10.07
2022-11-08T11:08:50.922Z,13.60
2022-11-08T11:11:59.811Z,12.55
2022-11-08T11:15:05.333Z,11.82
2022-11-08T11:18:22.945Z,18.08
2022-11-08T11:21:26.592Z,14.23
2022-11-08T11:24:29.898Z,14.23
2022-11-08T11:27:37.730Z,11.85
2022-11-08T11:30:42.192Z,13.82
2022-11-08T11:33:47.277Z,12.85
2022-11-08T11:36:56.292Z,12.25
2022-11-08T11:40:07.490Z,12.50
2022-11-08T11:43:17.740Z,11.75
2022-11-08T11:49:29.150Z,12.65
2022-11-08T11:52:32.971Z,14.77
2022-11-08T11:55:48.840Z,13.15
2022-11-08T11:59:33.824Z,12.90
2022-11-08T12:03:14.355Z,13.77
2022-11-08T12:06:29.668Z,15.13
2022-11-08T12:09:45.145Z,13.68
2022-11-08T12:13:00.005Z,14.40
2022-11-08T12:16:11.350Z,10.85
2022-11-08T12:19:33.193Z,11.60
2022-11-08T12:22:49.244Z,15.57
2022-11-08T12:26:00.642Z,13.68
2022-11-08T12:29:17.929Z,12.55
2022-11-08T12:32:34.575Z,13.80
2022-11-08T12:35:48.442Z,14.50
2022-11-08T12:39:02.955Z,12.02
2022-11-08T12:42:25.403Z,13.70
2022-11-08T12:45:49.836Z,14.25
2022-11-08T12:49:13.970Z,17.00
2022-11-08T12:52:33.697Z,15.27
2022-11-08T12:55:38.456Z,15.23
2022-11-08T12:58:46.480Z,13.23
2022-11-08T13:01:51.055Z,13.63
2022-11-08T13:04:58.692Z,15.52
2022-11-08T13:08:12.825Z,11.93
2022-11-08T13:11:23.401Z,11.52
2022-11-08T13:14:27.466Z,14.27
2022-11-08T13:17:32.236Z,11.68
2022-11-08T13:20:40.856Z,14.32
2022-11-08T13:23:45.428Z,14.32
2022-11-08T13:26:50.125Z,13.35
2022-11-08T13:29:54.435Z,15.82
2022-11-08T13:33:05.501Z,16.00
2022-11-08T13:36:22.341Z,12.25
2022-11-08T13:39:41.618Z,10.65
2022-11-08T13:43:00.092Z,16.25
2022-11-08T13:46:40.718Z,10.73
2022-11-08T13:49:43.998Z,15.63
2022-11-08T13:53:02.218Z,16.33
2022-11-08T13:56:42.296Z,15.23
2022-11-08T13:59:56.060Z,18.38
2022-11-08T14:02:59.306Z,13.57
2022-11-08T14:06:08.402Z,15.80
2022-11-08T14:09:23.215Z,12.05
2022-11-08T14:12:35.355Z,13.50
2022-11-08T14:15:46.635Z,18.02
2022-11-08T14:18:50.032Z,18.85
2022-11-08T14:21:56.313Z,17.45
2022-11-08T14:25:09.732Z,17.48
2022-11-08T14:28:29.612Z,21.30
2022-11-08T14:31:34.884Z,19.67
2022-11-08T14:34:39.261Z,20.63
2022-11-08T14:37:44.956Z,20.85
2022-11-08T14:40:54.131Z,19.05
2022-11-08T14:44:01.681Z,20.90
2022-11-08T14:47:05.681Z,32.88
2022-11-08T14:50:17.648Z,20.63
2022-11-08T14:53:24.524Z,23.83
2022-11-08T14:56:37.021Z,26.52
2022-11-08T14:59:43.141Z,27.02
2022-11-08T15:02:49.625Z,32.17
2022-11-08T15:05:57.454Z,30.67
2022-11-08T15:09:01.536Z,24.70
2022-11-08T15:12:07.787Z,32.67
2022-11-08T15:15:23.310Z,40.08
2022-11-08T15:18:28.574Z,31.75
2022-11-08T15:21:32.901Z,34.33
2022-11-08T15:24:38.610Z,31.10
2022-11-08T15:27:47.824Z,29.17
2022-11-08T15:30:57.327Z,41.08
2022-11-08T15:34:00.809Z,55.13
2022-11-08T15:37:04.244Z,61.85
2022-11-08T15:40:18.733Z,54.78
2022-11-08T15:43:37.642Z,59.45
2022-11-08T15:46:43.184Z,63.70
2022-11-08T15:49:46.429Z,69.15
2022-11-08T15:52:51.537Z,60.05
2022-11-08T15:55:57.937Z,66.43
2022-11-08T15:59:01.378Z,95.30
2022-11-08T16:02:14.877Z,86.45
2022-11-08T16:05:21.364Z,94.80
2022-11-08T16:08:26.238Z,81.00
2022-11-08T16:11:30.081Z,80.55
2022-11-08T16:14:33.470Z,73.85
2022-11-08T16:17:38.118Z,81.60
2022-11-08T16:20:41.565Z,101.03
2022-11-08T16:23:44.911Z,166.45
2022-11-08T16:26:49.477Z,142.13
2022-11-08T16:29:52.866Z,129.55
2022-11-08T16:32:58.509Z,200.25
2022-11-08T16:36:03.713Z,199.05
2022-11-08T16:39:12.045Z,135.75
2022-11-08T16:42:15.426Z,97.72
2022-11-08T16:45:37.262Z,167.73
2022-11-08T16:48:50.539Z,153.40
2022-11-08T16:51:54.189Z,154.48
2022-11-08T16:54:57.860Z,116.65
2022-11-08T16:58:01.114Z,82.47
2022-11-08T17:01:10.252Z,85.03
2022-11-08T17:04:15.361Z,71.70
2022-11-08T17:07:18.658Z,73.70
2022-11-08T17:10:24.119Z,70.30
2022-11-08T17:13:28.360Z,71.00
2022-11-08T17:16:31.804Z,74.40
2022-11-08T17:19:38.190Z,79.65
2022-11-08T17:22:42.440Z,83.13
2022-11-08T17:25:48.520Z,77.22
2022-11-08T17:28:55.544Z,82.25
2022-11-08T17:31:58.977Z,88.68
2022-11-08T17:35:13.805Z,90.05
2022-11-08T17:38:18.090Z,125.88
2022-11-08T17:41:21.619Z,97.35
2022-11-08T17:44:27.224Z,98.43
2022-11-08T17:47:30.764Z,108.45
2022-11-08T17:50:35.455Z,81.47
2022-11-08T17:53:39.180Z,86.57
2022-11-08T17:56:42.763Z,166.57
2022-11-08T17:59:48.141Z,254.43
2022-11-08T18:02:51.496Z,175.70
2022-11-08T18:05:57.819Z,359.83
2022-11-08T18:09:01.553Z,346.98
2022-11-08T18:12:05.323Z,311.15
2022-11-08T18:15:09.859Z,355.90
2022-11-08T18:18:13.978Z,803.70
2022-11-08T18:21:20.043Z,310.00
2022-11-08T18:24:24.395Z,192.25
2022-11-08T18:27:28.058Z,365.15
2022-11-08T18:30:31.828Z,453.85
2022-11-08T18:33:36.406Z,273.67
2022-11-08T18:36:43.387Z,173.95
2022-11-08T18:39:46.784Z,114.10
2022-11-08T18:42:50.532Z,116.93
2022-11-08T18:45:54.985Z,118.15
2022-11-08T18:48:58.412Z,76.90
2022-11-08T18:52:03.195Z,72.50
2022-11-08T18:55:07.361Z,97.55
2022-11-08T18:58:10.679Z,81.90
2022-11-08T19:01:14.916Z,67.90
2022-11-08T19:04:18.461Z,80.85
2022-11-08T19:07:24.299Z,78.30
2022-11-08T19:10:27.697Z,76.15
2022-11-08T19:13:32.433Z,77.10
2022-11-08T19:16:36.816Z,68.45
2022-11-08T19:19:40.236Z,91.28
2022-11-08T19:22:45.061Z,75.15
2022-11-08T19:25:55.251Z,114.88
2022-11-08T19:29:00.140Z,119.78
2022-11-08T19:32:03.572Z,126.22
2022-11-08T19:35:08.419Z,149.15
2022-11-08T19:38:15.463Z,139.80
2022-11-08T19:41:21.044Z,172.50
2022-11-08T19:44:25.760Z,124.28
2022-11-08T19:47:29.489Z,99.50
2022-11-08T19:50:32.896Z,94.30
2022-11-08T19:53:38.342Z,103.00
2022-11-08T20:00:06.262Z,122.88
2022-11-08T20:03:15.717Z,122.38
2022-11-08T20:06:27.884Z,133.88
2022-11-08T20:09:35.814Z,137.93
2022-11-08T20:12:39.885Z,110.78
2022-11-08T20:15:43.668Z,113.05
2022-11-08T20:18:47.770Z,116.78
2022-11-08T20:21:51.601Z,127.97
2022-11-08T20:24:58.682Z,123.28
2022-11-08T20:28:02.049Z,142.65
2022-11-08T20:31:09.337Z,125.95
2022-11-08T20:34:13.513Z,140.75
2022-11-08T20:37:16.959Z,105.32
2022-11-08T20:40:22.979Z,94.00
2022-11-08T20:43:26.381Z,104.38
2022-11-08T20:46:29.864Z,112.47
2022-11-08T20:49:33.377Z,119.25
2022-11-08T20:52:36.751Z,104.32
2022-11-08T20:55:41.971Z,99.13
2022-11-08T20:58:47.273Z,88.82
2022-11-08T21:01:50.692Z,94.75
2022-11-08T21:04:54.239Z,95.57
2022-11-08T21:11:23.047Z,82.05
2022-11-08T21:14:26.828Z,78.78
2022-11-08T21:17:31.114Z,74.80
2022-11-08T21:20:37.024Z,76.57
2022-11-08T21:23:42.033Z,86.15
2022-11-08T21:26:46.761Z,84.03
2022-11-08T21:29:50.080Z,83.90
2022-11-08T21:32:53.397Z,225.30
2022-11-08T21:35:58.684Z,147.85
2022-11-08T21:39:02.210Z,122.32
2022-11-08T21:42:07.016Z,107.53
2022-11-08T21:45:11.185Z,98.20
2022-11-08T21:48:16.053Z,139.15
2022-11-08T21:51:19.375Z,104.75
2022-11-08T21:54:23.235Z,119.40
2022-11-08T21:57:27.988Z,109.10
2022-11-08T22:00:32.562Z,111.55
2022-11-08T22:03:36.676Z,100.90
2022-11-08T22:06:44.900Z,133.50
2022-11-08T22:09:52.011Z,154.23
2022-11-08T22:12:56.763Z,155.38
2022-11-08T22:16:00.215Z,136.65
2022-11-08T22:19:05.258Z,165.45
2022-11-08T22:22:09.851Z,123.68
2022-11-08T22:25:13.249Z,117.45
2022-11-08T22:28:18.588Z,154.30
2022-11-08T22:31:22.156Z,131.65
2022-11-08T22:34:25.421Z,126.22
2022-11-08T22:37:28.742Z,142.75
2022-11-08T22:40:32.057Z,110.57
2022-11-08T22:43:36.978Z,118.72
2022-11-08T22:46:40.557Z,112.85
2022-11-08T22:49:45.101Z,112.53
2022-11-08T22:52:49.765Z,149.82
2022-11-08T22:55:53.078Z,137.73
2022-11-08T22:58:57.800Z,130.70
2022-11-08T23:02:01.072Z,128.88
2022-11-08T23:05:04.553Z,115.57
2022-11-08T23:08:07.909Z,130.45
2022-11-08T23:11:29.232Z,116.95
2022-11-08T23:14:51.564Z,114.22
2022-11-08T23:17:55.836Z,121.45
2022-11-08T23:21:16.599Z,128.10
2022-11-08T23:24:22.659Z,122.25
2022-11-08T23:27:44.573Z,144.73
2022-11-08T23:31:06.609Z,125.60
2022-11-08T23:34:10.145Z,120.13
2022-11-08T23:37:13.584Z,134.73
2022-11-08T23:40:35.962Z,131.40
2022-11-08T23:43:56.365Z,130.38
2022-11-08T23:50:06.455Z,140.93
2022-11-08T23:53:09.737Z,133.57
2022-11-08T23:56:20.359Z,132.75
2022-11-08T23:59:23.712Z,137.07
